sensor_id;sensor_type;location;lat;lon;timestamp;P1;durP1;ratioP1;P2;durP2;ratioP2
12129;SDS011;6128;59.340;18.040;2022-12-10T00:02:25;4.80;;;3.87;;
12129;SDS011;6128;59.340;18.040;2022-12-10T00:04:52;4.20;;;3.80;;
12129;SDS011;6128;59.340;18.040;2022-12-10T00:07:19;4.13;;;3.53;;
12129;SDS011;6128;59.340;18.040;2022-12-10T00:09:48;4.13;;;3.73;;
12129;SDS011;6128;59.340;18.040;2022-12-10T00:12:16;4.60;;;4.00;;
12129;SDS011;6128;59.340;18.040;2022-12-10T00:14:43;4.47;;;4.07;;
12129;SDS011;6128;59.340;18.040;2022-12-10T00:17:10;4.03;;;3.70;;
12129;SDS011;6128;59.340;18.040;2022-12-10T00:19:37;4.70;;;4.20;;
12129;SDS011;6128;59.340;18.040;2022-12-10T00:22:04;4.60;;;4.10;;
12129;SDS011;6128;59.340;18.040;2022-12-10T00:24:32;4.30;;;3.90;;
12129;SDS011;6128;59.340;18.040;2022-12-10T00:27:00;5.37;;;3.77;;
12129;SDS011;6128;59.340;18.040;2022-12-10T00:29:28;4.20;;;3.80;;
12129;SDS011;6128;59.340;18.040;2022-12-10T00:31:55;5.20;;;4.27;;
12129;SDS011;6128;59.340;18.040;2022-12-10T00:34:22;3.93;;;3.53;;
12129;SDS011;6128;59.340;18.040;2022-12-10T00:36:49;4.70;;;4.17;;
12129;SDS011;6128;59.340;18.040;2022-12-10T00:39:17;4.07;;;3.73;;
12129;SDS011;6128;59.340;18.040;2022-12-10T00:41:46;3.80;;;3.40;;
12129;SDS011;6128;59.340;18.040;2022-12-10T00:44:15;4.43;;;3.73;;
12129;SDS011;6128;59.340;18.040;2022-12-10T00:46:42;3.70;;;3.40;;
12129;SDS011;6128;59.340;18.040;2022-12-10T00:49:10;3.73;;;3.43;;
12129;SDS011;6128;59.340;18.040;2022-12-10T00:51:37;3.87;;;3.57;;
12129;SDS011;6128;59.340;18.040;2022-12-10T00:54:05;4.13;;;3.73;;
12129;SDS011;6128;59.340;18.040;2022-12-10T00:56:33;3.87;;;3.13;;
12129;SDS011;6128;59.340;18.040;2022-12-10T00:59:00;4.47;;;3.70;;
12129;SDS011;6128;59.340;18.040;2022-12-10T01:01:30;4.27;;;3.87;;
12129;SDS011;6128;59.340;18.040;2022-12-10T01:03:59;3.87;;;3.57;;
12129;SDS011;6128;59.340;18.040;2022-12-10T01:06:28;7.27;;;4.30;;
12129;SDS011;6128;59.340;18.040;2022-12-10T01:08:57;4.90;;;3.97;;
12129;SDS011;6128;59.340;18.040;2022-12-10T01:11:26;4.63;;;3.30;;
12129;SDS011;6128;59.340;18.040;2022-12-10T01:13:55;3.83;;;3.43;;
12129;SDS011;6128;59.340;18.040;2022-12-10T01:16:23;3.87;;;3.43;;
12129;SDS011;6128;59.340;18.040;2022-12-10T01:18:53;3.87;;;3.43;;
12129;SDS011;6128;59.340;18.040;2022-12-10T01:21:21;4.20;;;3.80;;
12129;SDS011;6128;59.340;18.040;2022-12-10T01:23:50;4.77;;;4.27;;
12129;SDS011;6128;59.340;18.040;2022-12-10T01:26:19;5.90;;;4.60;;
12129;SDS011;6128;59.340;18.040;2022-12-10T01:28:48;5.33;;;4.07;;
12129;SDS011;6128;59.340;18.040;2022-12-10T01:31:16;5.37;;;4.07;;
12129;SDS011;6128;59.340;18.040;2022-12-10T01:33:47;4.03;;;3.63;;
12129;SDS011;6128;59.340;18.040;2022-12-10T01:36:17;4.50;;;3.93;;
12129;SDS011;6128;59.340;18.040;2022-12-10T01:38:45;4.00;;;3.60;;
12129;SDS011;6128;59.340;18.040;2022-12-10T01:41:13;4.07;;;3.67;;
12129;SDS011;6128;59.340;18.040;2022-12-10T01:43:49;3.70;;;3.03;;
12129;SDS011;6128;59.340;18.040;2022-12-10T01:46:22;4.50;;;3.53;;
12129;SDS011;6128;59.340;18.040;2022-12-10T01:48:50;4.17;;;3.50;;
12129;SDS011;6128;59.340;18.040;2022-12-10T01:51:19;3.77;;;3.27;;
12129;SDS011;6128;59.340;18.040;2022-12-10T01:53:47;3.50;;;3.20;;
12129;SDS011;6128;59.340;18.040;2022-12-10T01:56:15;3.80;;;3.40;;
12129;SDS011;6128;59.340;18.040;2022-12-10T01:58:44;3.60;;;3.27;;
12129;SDS011;6128;59.340;18.040;2022-12-10T02:01:13;3.93;;;3.20;;
12129;SDS011;6128;59.340;18.040;2022-12-10T02:03:51;3.40;;;3.10;;
12129;SDS011;6128;59.340;18.040;2022-12-10T02:06:28;3.10;;;2.80;;
12129;SDS011;6128;59.340;18.040;2022-12-10T02:09:04;2.67;;;2.47;;
12129;SDS011;6128;59.340;18.040;2022-12-10T02:11:40;3.43;;;3.07;;
12129;SDS011;6128;59.340;18.040;2022-12-10T02:14:13;3.40;;;3.10;;
12129;SDS011;6128;59.340;18.040;2022-12-10T02:16:46;3.50;;;2.87;;
12129;SDS011;6128;59.340;18.040;2022-12-10T02:19:20;3.40;;;3.10;;
12129;SDS011;6128;59.340;18.040;2022-12-10T02:22:03;2.80;;;2.60;;
12129;SDS011;6128;59.340;18.040;2022-12-10T02:24:34;4.03;;;3.10;;
12129;SDS011;6128;59.340;18.040;2022-12-10T02:27:04;2.60;;;2.40;;
12129;SDS011;6128;59.340;18.040;2022-12-10T02:29:39;2.80;;;2.50;;
12129;SDS011;6128;59.340;18.040;2022-12-10T02:32:11;3.40;;;2.70;;
12129;SDS011;6128;59.340;18.040;2022-12-10T02:34:41;2.87;;;2.60;;
12129;SDS011;6128;59.340;18.040;2022-12-10T02:37:12;3.13;;;2.93;;
12129;SDS011;6128;59.340;18.040;2022-12-10T02:39:45;3.00;;;2.67;;
12129;SDS011;6128;59.340;18.040;2022-12-10T02:42:15;3.40;;;2.43;;
12129;SDS011;6128;59.340;18.040;2022-12-10T02:44:46;3.40;;;2.60;;
12129;SDS011;6128;59.340;18.040;2022-12-10T02:47:15;3.00;;;2.80;;
12129;SDS011;6128;59.340;18.040;2022-12-10T02:49:44;3.13;;;2.87;;
12129;SDS011;6128;59.340;18.040;2022-12-10T02:52:15;3.80;;;2.90;;
12129;SDS011;6128;59.340;18.040;2022-12-10T02:54:45;3.20;;;2.90;;
12129;SDS011;6128;59.340;18.040;2022-12-10T03:00:05;3.50;;;3.20;;
12129;SDS011;6128;59.340;18.040;2022-12-10T03:02:42;3.23;;;2.97;;
12129;SDS011;6128;59.340;18.040;2022-12-10T03:05:21;3.50;;;3.20;;
12129;SDS011;6128;59.340;18.040;2022-12-10T03:07:55;3.30;;;3.00;;
12129;SDS011;6128;59.340;18.040;2022-12-10T03:10:31;3.47;;;3.17;;
12129;SDS011;6128;59.340;18.040;2022-12-10T03:13:02;4.30;;;3.87;;
12129;SDS011;6128;59.340;18.040;2022-12-10T03:15:35;3.57;;;3.27;;
12129;SDS011;6128;59.340;18.040;2022-12-10T03:18:05;3.67;;;3.37;;
12129;SDS011;6128;59.340;18.040;2022-12-10T03:20:37;3.63;;;3.33;;
12129;SDS011;6128;59.340;18.040;2022-12-10T03:23:07;4.53;;;3.63;;
12129;SDS011;6128;59.340;18.040;2022-12-10T03:25:37;4.03;;;3.63;;
12129;SDS011;6128;59.340;18.040;2022-12-10T03:28:05;3.90;;;3.50;;
12129;SDS011;6128;59.340;18.040;2022-12-10T03:30:36;4.00;;;3.60;;
12129;SDS011;6128;59.340;18.040;2022-12-10T03:33:05;3.50;;;3.17;;
12129;SDS011;6128;59.340;18.040;2022-12-10T03:35:32;3.40;;;2.80;;
12129;SDS011;6128;59.340;18.040;2022-12-10T03:38:00;3.87;;;3.43;;
12129;SDS011;6128;59.340;18.040;2022-12-10T03:40:27;3.73;;;3.43;;
12129;SDS011;6128;59.340;18.040;2022-12-10T03:42:55;3.37;;;3.07;;
12129;SDS011;6128;59.340;18.040;2022-12-10T03:45:22;5.07;;;3.23;;
12129;SDS011;6128;59.340;18.040;2022-12-10T03:47:51;3.33;;;3.03;;
12129;SDS011;6128;59.340;18.040;2022-12-10T03:50:18;2.60;;;2.40;;
12129;SDS011;6128;59.340;18.040;2022-12-10T03:52:45;2.50;;;1.80;;
12129;SDS011;6128;59.340;18.040;2022-12-10T03:55:12;1.77;;;1.67;;
12129;SDS011;6128;59.340;18.040;2022-12-10T03:57:39;1.90;;;1.70;;
12129;SDS011;6128;59.340;18.040;2022-12-10T04:00:07;2.07;;;1.97;;
12129;SDS011;6128;59.340;18.040;2022-12-10T04:02:35;2.00;;;1.90;;
12129;SDS011;6128;59.340;18.040;2022-12-10T04:05:04;2.20;;;2.00;;
12129;SDS011;6128;59.340;18.040;2022-12-10T04:07:32;2.20;;;2.00;;
12129;SDS011;6128;59.340;18.040;2022-12-10T04:09:59;2.20;;;2.00;;
12129;SDS011;6128;59.340;18.040;2022-12-10T04:12:27;1.90;;;1.80;;
12129;SDS011;6128;59.340;18.040;2022-12-10T04:14:54;2.00;;;1.90;;
12129;SDS011;6128;59.340;18.040;2022-12-10T04:17:38;2.20;;;2.00;;
12129;SDS011;6128;59.340;18.040;2022-12-10T04:20:07;2.40;;;2.20;;
12129;SDS011;6128;59.340;18.040;2022-12-10T04:22:56;2.13;;;2.03;;
12129;SDS011;6128;59.340;18.040;2022-12-10T04:25:40;2.37;;;2.17;;
12129;SDS011;6128;59.340;18.040;2022-12-10T04:28:39;1.90;;;1.80;;
12129;SDS011;6128;59.340;18.040;2022-12-10T04:31:07;2.03;;;1.83;;
12129;SDS011;6128;59.340;18.040;2022-12-10T04:33:34;1.87;;;1.73;;
12129;SDS011;6128;59.340;18.040;2022-12-10T04:36:03;1.90;;;1.80;;
12129;SDS011;6128;59.340;18.040;2022-12-10T04:38:30;2.03;;;1.93;;
12129;SDS011;6128;59.340;18.040;2022-12-10T04:40:57;2.13;;;2.00;;
12129;SDS011;6128;59.340;18.040;2022-12-10T04:43:25;1.87;;;1.77;;
12129;SDS011;6128;59.340;18.040;2022-12-10T04:45:55;2.13;;;2.03;;
12129;SDS011;6128;59.340;18.040;2022-12-10T04:48:22;2.23;;;2.03;;
12129;SDS011;6128;59.340;18.040;2022-12-10T04:50:49;1.90;;;1.80;;
12129;SDS011;6128;59.340;18.040;2022-12-10T04:53:18;1.70;;;1.60;;
12129;SDS011;6128;59.340;18.040;2022-12-10T04:55:45;2.20;;;2.10;;
12129;SDS011;6128;59.340;18.040;2022-12-10T04:58:12;2.30;;;2.10;;
12129;SDS011;6128;59.340;18.040;2022-12-10T05:00:39;1.80;;;1.70;;
12129;SDS011;6128;59.340;18.040;2022-12-10T05:03:06;2.23;;;2.03;;
12129;SDS011;6128;59.340;18.040;2022-12-10T05:05:34;1.90;;;1.80;;
12129;SDS011;6128;59.340;18.040;2022-12-10T05:08:01;2.00;;;1.90;;
12129;SDS011;6128;59.340;18.040;2022-12-10T05:10:30;2.40;;;1.70;;
12129;SDS011;6128;59.340;18.040;2022-12-10T05:13:00;1.90;;;1.80;;
12129;SDS011;6128;59.340;18.040;2022-12-10T05:15:27;1.93;;;1.83;;
12129;SDS011;6128;59.340;18.040;2022-12-10T05:17:55;1.83;;;1.70;;
12129;SDS011;6128;59.340;18.040;2022-12-10T05:20:22;2.63;;;1.80;;
12129;SDS011;6128;59.340;18.040;2022-12-10T05:22:49;2.00;;;1.90;;
12129;SDS011;6128;59.340;18.040;2022-12-10T05:25:35;2.20;;;1.80;;
12129;SDS011;6128;59.340;18.040;2022-12-10T05:28:17;2.27;;;2.07;;
12129;SDS011;6128;59.340;18.040;2022-12-10T05:30:45;1.70;;;1.60;;
12129;SDS011;6128;59.340;18.040;2022-12-10T05:33:12;2.10;;;2.00;;
12129;SDS011;6128;59.340;18.040;2022-12-10T05:35:40;2.10;;;2.00;;
12129;SDS011;6128;59.340;18.040;2022-12-10T05:38:07;1.93;;;1.83;;
12129;SDS011;6128;59.340;18.040;2022-12-10T05:40:36;2.40;;;2.20;;
12129;SDS011;6128;59.340;18.040;2022-12-10T05:43:04;1.80;;;1.70;;
12129;SDS011;6128;59.340;18.040;2022-12-10T05:45:31;1.80;;;1.70;;
12129;SDS011;6128;59.340;18.040;2022-12-10T05:47:58;3.10;;;1.67;;
12129;SDS011;6128;59.340;18.040;2022-12-10T05:50:26;1.60;;;1.50;;
12129;SDS011;6128;59.340;18.040;2022-12-10T05:52:53;1.53;;;1.40;;
12129;SDS011;6128;59.340;18.040;2022-12-10T05:55:20;1.87;;;1.77;;
12129;SDS011;6128;59.340;18.040;2022-12-10T05:57:49;1.70;;;1.60;;
12129;SDS011;6128;59.340;18.040;2022-12-10T06:00:16;1.40;;;1.30;;
12129;SDS011;6128;59.340;18.040;2022-12-10T06:02:45;1.60;;;1.50;;
12129;SDS011;6128;59.340;18.040;2022-12-10T06:05:12;1.40;;;1.30;;
12129;SDS011;6128;59.340;18.040;2022-12-10T06:07:39;1.23;;;1.13;;
12129;SDS011;6128;59.340;18.040;2022-12-10T06:10:07;1.57;;;1.23;;
12129;SDS011;6128;59.340;18.040;2022-12-10T06:12:34;1.77;;;1.60;;
12129;SDS011;6128;59.340;18.040;2022-12-10T06:15:03;1.50;;;1.40;;
12129;SDS011;6128;59.340;18.040;2022-12-10T06:17:32;2.03;;;1.73;;
12129;SDS011;6128;59.340;18.040;2022-12-10T06:19:59;2.37;;;1.40;;
12129;SDS011;6128;59.340;18.040;2022-12-10T06:22:26;2.20;;;1.50;;
12129;SDS011;6128;59.340;18.040;2022-12-10T06:24:53;1.77;;;1.60;;
12129;SDS011;6128;59.340;18.040;2022-12-10T06:27:20;1.87;;;1.67;;
12129;SDS011;6128;59.340;18.040;2022-12-10T06:29:48;1.93;;;1.83;;
12129;SDS011;6128;59.340;18.040;2022-12-10T06:32:16;2.47;;;2.27;;
12129;SDS011;6128;59.340;18.040;2022-12-10T06:34:43;2.30;;;2.10;;
12129;SDS011;6128;59.340;18.040;2022-12-10T06:37:11;2.10;;;1.90;;
12129;SDS011;6128;59.340;18.040;2022-12-10T06:39:38;1.90;;;1.80;;
12129;SDS011;6128;59.340;18.040;2022-12-10T06:42:05;2.10;;;2.00;;
12129;SDS011;6128;59.340;18.040;2022-12-10T06:44:33;1.97;;;1.87;;
12129;SDS011;6128;59.340;18.040;2022-12-10T06:47:00;1.97;;;1.87;;
12129;SDS011;6128;59.340;18.040;2022-12-10T06:49:29;2.00;;;1.80;;
12129;SDS011;6128;59.340;18.040;2022-12-10T06:51:56;2.37;;;1.90;;
12129;SDS011;6128;59.340;18.040;2022-12-10T06:54:23;2.00;;;1.80;;
12129;SDS011;6128;59.340;18.040;2022-12-10T06:56:51;1.93;;;1.77;;
12129;SDS011;6128;59.340;18.040;2022-12-10T06:59:18;1.70;;;1.60;;
12129;SDS011;6128;59.340;18.040;2022-12-10T07:01:46;2.03;;;1.57;;
12129;SDS011;6128;59.340;18.040;2022-12-10T07:04:14;1.80;;;1.70;;
12129;SDS011;6128;59.340;18.040;2022-12-10T07:06:43;1.90;;;1.80;;
12129;SDS011;6128;59.340;18.040;2022-12-10T07:09:11;2.10;;;1.90;;
12129;SDS011;6128;59.340;18.040;2022-12-10T07:11:38;3.13;;;1.77;;
12129;SDS011;6128;59.340;18.040;2022-12-10T07:14:05;1.87;;;1.77;;
12129;SDS011;6128;59.340;18.040;2022-12-10T07:16:32;2.10;;;1.90;;
12129;SDS011;6128;59.340;18.040;2022-12-10T07:19:00;1.70;;;1.60;;
12129;SDS011;6128;59.340;18.040;2022-12-10T07:21:29;1.67;;;1.57;;
12129;SDS011;6128;59.340;18.040;2022-12-10T07:24:02;2.37;;;2.17;;
12129;SDS011;6128;59.340;18.040;2022-12-10T07:26:32;2.13;;;1.97;;
12129;SDS011;6128;59.340;18.040;2022-12-10T07:29:01;1.73;;;1.63;;
12129;SDS011;6128;59.340;18.040;2022-12-10T07:31:29;1.90;;;1.80;;
12129;SDS011;6128;59.340;18.040;2022-12-10T07:33:57;2.77;;;2.00;;
12129;SDS011;6128;59.340;18.040;2022-12-10T07:36:25;1.97;;;1.87;;
12129;SDS011;6128;59.340;18.040;2022-12-10T07:38:53;1.50;;;1.40;;
12129;SDS011;6128;59.340;18.040;2022-12-10T07:41:22;1.80;;;1.70;;
12129;SDS011;6128;59.340;18.040;2022-12-10T07:43:52;1.70;;;1.60;;
12129;SDS011;6128;59.340;18.040;2022-12-10T07:46:20;2.10;;;1.90;;
12129;SDS011;6128;59.340;18.040;2022-12-10T07:48:52;3.20;;;2.90;;
12129;SDS011;6128;59.340;18.040;2022-12-10T07:51:26;2.40;;;2.20;;
12129;SDS011;6128;59.340;18.040;2022-12-10T07:53:54;2.30;;;2.10;;
12129;SDS011;6128;59.340;18.040;2022-12-10T07:56:23;2.50;;;2.30;;
12129;SDS011;6128;59.340;18.040;2022-12-10T07:58:51;2.10;;;1.90;;
12129;SDS011;6128;59.340;18.040;2022-12-10T08:01:19;2.30;;;2.10;;
12129;SDS011;6128;59.340;18.040;2022-12-10T08:03:48;2.40;;;2.20;;
12129;SDS011;6128;59.340;18.040;2022-12-10T08:06:17;1.70;;;1.60;;
12129;SDS011;6128;59.340;18.040;2022-12-10T08:08:45;1.83;;;1.73;;
12129;SDS011;6128;59.340;18.040;2022-12-10T08:11:14;2.27;;;2.07;;
12129;SDS011;6128;59.340;18.040;2022-12-10T08:13:44;2.93;;;1.90;;
12129;SDS011;6128;59.340;18.040;2022-12-10T08:16:13;2.13;;;2.03;;
12129;SDS011;6128;59.340;18.040;2022-12-10T08:18:41;2.77;;;2.30;;
12129;SDS011;6128;59.340;18.040;2022-12-10T08:21:09;2.60;;;2.40;;
12129;SDS011;6128;59.340;18.040;2022-12-10T08:23:38;2.40;;;2.20;;
12129;SDS011;6128;59.340;18.040;2022-12-10T08:26:06;2.20;;;2.00;;
12129;SDS011;6128;59.340;18.040;2022-12-10T08:28:36;2.40;;;2.20;;
12129;SDS011;6128;59.340;18.040;2022-12-10T08:31:06;2.10;;;1.90;;
12129;SDS011;6128;59.340;18.040;2022-12-10T08:33:35;2.40;;;2.13;;
12129;SDS011;6128;59.340;18.040;2022-12-10T08:36:03;2.23;;;2.10;;
12129;SDS011;6128;59.340;18.040;2022-12-10T08:38:31;2.40;;;2.20;;
12129;SDS011;6128;59.340;18.040;2022-12-10T08:40:58;2.67;;;2.47;;
12129;SDS011;6128;59.340;18.040;2022-12-10T08:43:31;2.63;;;2.43;;
12129;SDS011;6128;59.340;18.040;2022-12-10T08:45:58;2.20;;;1.87;;
12129;SDS011;6128;59.340;18.040;2022-12-10T08:48:27;2.50;;;2.27;;
12129;SDS011;6128;59.340;18.040;2022-12-10T08:50:54;2.37;;;2.17;;
12129;SDS011;6128;59.340;18.040;2022-12-10T08:53:21;2.33;;;2.13;;
12129;SDS011;6128;59.340;18.040;2022-12-10T08:55:49;2.60;;;2.40;;
12129;SDS011;6128;59.340;18.040;2022-12-10T08:58:17;2.60;;;2.30;;
12129;SDS011;6128;59.340;18.040;2022-12-10T09:00:44;2.60;;;2.40;;
12129;SDS011;6128;59.340;18.040;2022-12-10T09:03:11;2.77;;;2.57;;
12129;SDS011;6128;59.340;18.040;2022-12-10T09:05:40;3.07;;;2.37;;
12129;SDS011;6128;59.340;18.040;2022-12-10T09:08:07;2.40;;;2.20;;
12129;SDS011;6128;59.340;18.040;2022-12-10T09:10:35;2.57;;;1.93;;
12129;SDS011;6128;59.340;18.040;2022-12-10T09:13:02;2.23;;;2.03;;
12129;SDS011;6128;59.340;18.040;2022-12-10T09:15:29;3.00;;;2.80;;
12129;SDS011;6128;59.340;18.040;2022-12-10T09:17:57;2.23;;;2.13;;
12129;SDS011;6128;59.340;18.040;2022-12-10T09:20:24;3.30;;;3.00;;
12129;SDS011;6128;59.340;18.040;2022-12-10T09:22:53;3.00;;;2.70;;
12129;SDS011;6128;59.340;18.040;2022-12-10T09:25:21;3.17;;;2.47;;
12129;SDS011;6128;59.340;18.040;2022-12-10T09:27:48;2.73;;;2.40;;
12129;SDS011;6128;59.340;18.040;2022-12-10T09:30:16;2.97;;;2.67;;
12129;SDS011;6128;59.340;18.040;2022-12-10T09:32:43;2.70;;;2.50;;
12129;SDS011;6128;59.340;18.040;2022-12-10T09:35:11;2.03;;;1.87;;
12129;SDS011;6128;59.340;18.040;2022-12-10T09:37:39;4.50;;;2.67;;
12129;SDS011;6128;59.340;18.040;2022-12-10T09:40:09;2.50;;;2.27;;
12129;SDS011;6128;59.340;18.040;2022-12-10T09:42:43;2.80;;;2.60;;
12129;SDS011;6128;59.340;18.040;2022-12-10T09:45:20;2.47;;;2.27;;
12129;SDS011;6128;59.340;18.040;2022-12-10T09:47:55;3.90;;;2.73;;
12129;SDS011;6128;59.340;18.040;2022-12-10T09:50:30;3.30;;;2.27;;
12129;SDS011;6128;59.340;18.040;2022-12-10T09:53:08;3.57;;;2.80;;
12129;SDS011;6128;59.340;18.040;2022-12-10T09:55:42;2.53;;;2.33;;
12129;SDS011;6128;59.340;18.040;2022-12-10T09:58:14;2.30;;;2.20;;
12129;SDS011;6128;59.340;18.040;2022-12-10T10:00:45;2.93;;;2.43;;
12129;SDS011;6128;59.340;18.040;2022-12-10T10:03:14;2.43;;;2.23;;
12129;SDS011;6128;59.340;18.040;2022-12-10T10:05:43;2.87;;;2.60;;
12129;SDS011;6128;59.340;18.040;2022-12-10T10:08:26;3.10;;;2.53;;
12129;SDS011;6128;59.340;18.040;2022-12-10T10:11:00;2.70;;;2.40;;
12129;SDS011;6128;59.340;18.040;2022-12-10T10:13:31;2.60;;;2.03;;
12129;SDS011;6128;59.340;18.040;2022-12-10T10:16:07;2.70;;;2.50;;
12129;SDS011;6128;59.340;18.040;2022-12-10T10:18:43;2.93;;;2.60;;
12129;SDS011;6128;59.340;18.040;2022-12-10T10:21:14;2.50;;;2.30;;
12129;SDS011;6128;59.340;18.040;2022-12-10T10:23:47;3.97;;;2.33;;
12129;SDS011;6128;59.340;18.040;2022-12-10T10:26:16;2.57;;;2.37;;
12129;SDS011;6128;59.340;18.040;2022-12-10T10:28:44;2.60;;;2.40;;
12129;SDS011;6128;59.340;18.040;2022-12-10T10:31:16;2.70;;;2.30;;
12129;SDS011;6128;59.340;18.040;2022-12-10T10:33:50;2.60;;;2.40;;
12129;SDS011;6128;59.340;18.040;2022-12-10T10:36:25;2.80;;;2.60;;
12129;SDS011;6128;59.340;18.040;2022-12-10T10:38:54;3.87;;;2.73;;
12129;SDS011;6128;59.340;18.040;2022-12-10T10:41:24;2.73;;;2.50;;
12129;SDS011;6128;59.340;18.040;2022-12-10T10:43:54;2.60;;;2.40;;
12129;SDS011;6128;59.340;18.040;2022-12-10T10:46:28;2.60;;;2.40;;
12129;SDS011;6128;59.340;18.040;2022-12-10T10:49:12;2.40;;;2.20;;
12129;SDS011;6128;59.340;18.040;2022-12-10T10:51:43;4.00;;;2.80;;
12129;SDS011;6128;59.340;18.040;2022-12-10T10:54:11;2.43;;;2.23;;
12129;SDS011;6128;59.340;18.040;2022-12-10T10:56:57;2.97;;;2.67;;
12129;SDS011;6128;59.340;18.040;2022-12-10T10:59:29;3.33;;;2.67;;
12129;SDS011;6128;59.340;18.040;2022-12-10T11:01:59;2.33;;;2.13;;
12129;SDS011;6128;59.340;18.040;2022-12-10T11:04:31;2.83;;;2.43;;
12129;SDS011;6128;59.340;18.040;2022-12-10T11:07:04;2.30;;;2.10;;
12129;SDS011;6128;59.340;18.040;2022-12-10T11:09:40;3.57;;;3.23;;
12129;SDS011;6128;59.340;18.040;2022-12-10T11:12:21;3.43;;;3.10;;
12129;SDS011;6128;59.340;18.040;2022-12-10T11:14:55;3.47;;;2.97;;
12129;SDS011;6128;59.340;18.040;2022-12-10T11:17:22;3.07;;;2.80;;
12129;SDS011;6128;59.340;18.040;2022-12-10T11:19:56;3.07;;;2.77;;
12129;SDS011;6128;59.340;18.040;2022-12-10T11:22:25;3.00;;;2.70;;
12129;SDS011;6128;59.340;18.040;2022-12-10T11:24:55;3.17;;;2.87;;
12129;SDS011;6128;59.340;18.040;2022-12-10T11:30:14;2.83;;;2.60;;
12129;SDS011;6128;59.340;18.040;2022-12-10T11:32:56;2.77;;;2.57;;
12129;SDS011;6128;59.340;18.040;2022-12-10T11:35:43;3.40;;;3.10;;
12129;SDS011;6128;59.340;18.040;2022-12-10T11:38:21;3.23;;;2.90;;
12129;SDS011;6128;59.340;18.040;2022-12-10T11:40:58;3.40;;;3.10;;
12129;SDS011;6128;59.340;18.040;2022-12-10T11:46:34;3.57;;;3.10;;
12129;SDS011;6128;59.340;18.040;2022-12-10T11:49:16;4.03;;;3.30;;
12129;SDS011;6128;59.340;18.040;2022-12-10T11:51:51;3.53;;;2.93;;
12129;SDS011;6128;59.340;18.040;2022-12-10T11:54:34;3.20;;;2.90;;
12129;SDS011;6128;59.340;18.040;2022-12-10T11:57:13;2.97;;;2.67;;
12129;SDS011;6128;59.340;18.040;2022-12-10T11:59:51;3.30;;;3.00;;
12129;SDS011;6128;59.340;18.040;2022-12-10T12:02:29;3.57;;;2.67;;
12129;SDS011;6128;59.340;18.040;2022-12-10T12:05:16;3.00;;;2.77;;
12129;SDS011;6128;59.340;18.040;2022-12-10T12:07:51;3.57;;;2.70;;
12129;SDS011;6128;59.340;18.040;2022-12-10T12:10:34;2.97;;;2.30;;
12129;SDS011;6128;59.340;18.040;2022-12-10T12:13:15;3.90;;;2.83;;
12129;SDS011;6128;59.340;18.040;2022-12-10T12:15:46;3.30;;;2.87;;
12129;SDS011;6128;59.340;18.040;2022-12-10T12:18:18;2.47;;;2.07;;
12129;SDS011;6128;59.340;18.040;2022-12-10T12:20:49;2.67;;;2.27;;
12129;SDS011;6128;59.340;18.040;2022-12-10T12:23:23;3.00;;;2.20;;
12129;SDS011;6128;59.340;18.040;2022-12-10T12:25:55;3.00;;;2.40;;
12129;SDS011;6128;59.340;18.040;2022-12-10T12:28:27;2.40;;;2.20;;
12129;SDS011;6128;59.340;18.040;2022-12-10T12:31:05;3.00;;;2.50;;
12129;SDS011;6128;59.340;18.040;2022-12-10T12:33:40;2.50;;;2.30;;
12129;SDS011;6128;59.340;18.040;2022-12-10T12:36:14;2.40;;;1.83;;
12129;SDS011;6128;59.340;18.040;2022-12-10T12:38:45;2.40;;;2.10;;
12129;SDS011;6128;59.340;18.040;2022-12-10T12:41:23;2.20;;;2.00;;
12129;SDS011;6128;59.340;18.040;2022-12-10T12:43:58;3.50;;;2.53;;
12129;SDS011;6128;59.340;18.040;2022-12-10T12:46:35;2.43;;;2.23;;
12129;SDS011;6128;59.340;18.040;2022-12-10T12:49:08;2.60;;;2.40;;
12129;SDS011;6128;59.340;18.040;2022-12-10T12:51:41;3.63;;;3.20;;
12129;SDS011;6128;59.340;18.040;2022-12-10T12:54:13;2.90;;;2.40;;
12129;SDS011;6128;59.340;18.040;2022-12-10T12:56:53;2.83;;;2.30;;
12129;SDS011;6128;59.340;18.040;2022-12-10T12:59:30;3.67;;;2.57;;
12129;SDS011;6128;59.340;18.040;2022-12-10T13:02:13;6.67;;;5.03;;
12129;SDS011;6128;59.340;18.040;2022-12-10T13:04:47;8.13;;;6.07;;
12129;SDS011;6128;59.340;18.040;2022-12-10T13:07:29;13.23;;;7.80;;
12129;SDS011;6128;59.340;18.040;2022-12-10T13:10:09;2.50;;;2.27;;
12129;SDS011;6128;59.340;18.040;2022-12-10T13:13:05;2.23;;;2.03;;
12129;SDS011;6128;59.340;18.040;2022-12-10T13:15:42;2.90;;;2.60;;
12129;SDS011;6128;59.340;18.040;2022-12-10T13:23:53;2.77;;;2.53;;
12129;SDS011;6128;59.340;18.040;2022-12-10T13:26:31;4.03;;;2.30;;
12129;SDS011;6128;59.340;18.040;2022-12-10T13:29:10;2.63;;;2.43;;
12129;SDS011;6128;59.340;18.040;2022-12-10T13:31:39;2.40;;;2.10;;
12129;SDS011;6128;59.340;18.040;2022-12-10T13:34:23;1.93;;;1.77;;
12129;SDS011;6128;59.340;18.040;2022-12-10T13:37:04;3.53;;;2.37;;
12129;SDS011;6128;59.340;18.040;2022-12-10T13:39:53;2.30;;;2.10;;
12129;SDS011;6128;59.340;18.040;2022-12-10T13:42:28;2.40;;;2.20;;
12129;SDS011;6128;59.340;18.040;2022-12-10T13:45:28;2.97;;;2.37;;
12129;SDS011;6128;59.340;18.040;2022-12-10T13:51:04;2.33;;;1.90;;
12129;SDS011;6128;59.340;18.040;2022-12-10T13:53:43;2.17;;;1.97;;
12129;SDS011;6128;59.340;18.040;2022-12-10T13:56:20;2.23;;;2.03;;
12129;SDS011;6128;59.340;18.040;2022-12-10T13:58:55;1.93;;;1.80;;
12129;SDS011;6128;59.340;18.040;2022-12-10T14:01:38;3.70;;;2.53;;
12129;SDS011;6128;59.340;18.040;2022-12-10T14:04:18;3.27;;;2.53;;
12129;SDS011;6128;59.340;18.040;2022-12-10T14:06:57;2.57;;;2.37;;
12129;SDS011;6128;59.340;18.040;2022-12-10T14:09:26;3.17;;;2.23;;
12129;SDS011;6128;59.340;18.040;2022-12-10T14:11:58;2.83;;;2.40;;
12129;SDS011;6128;59.340;18.040;2022-12-10T14:14:29;2.47;;;2.20;;
12129;SDS011;6128;59.340;18.040;2022-12-10T14:16:59;2.83;;;2.53;;
12129;SDS011;6128;59.340;18.040;2022-12-10T14:19:27;2.40;;;2.17;;
12129;SDS011;6128;59.340;18.040;2022-12-10T14:21:55;2.13;;;1.97;;
12129;SDS011;6128;59.340;18.040;2022-12-10T14:24:25;2.03;;;1.90;;
12129;SDS011;6128;59.340;18.040;2022-12-10T14:26:58;2.30;;;2.10;;
12129;SDS011;6128;59.340;18.040;2022-12-10T14:29:27;2.67;;;2.23;;
12129;SDS011;6128;59.340;18.040;2022-12-10T14:31:54;2.53;;;2.33;;
12129;SDS011;6128;59.340;18.040;2022-12-10T14:34:23;1.83;;;1.73;;
12129;SDS011;6128;59.340;18.040;2022-12-10T14:36:54;2.83;;;2.27;;
12129;SDS011;6128;59.340;18.040;2022-12-10T14:39:26;2.33;;;2.13;;
12129;SDS011;6128;59.340;18.040;2022-12-10T14:41:55;2.70;;;2.50;;
12129;SDS011;6128;59.340;18.040;2022-12-10T14:44:25;2.37;;;2.17;;
12129;SDS011;6128;59.340;18.040;2022-12-10T14:47:02;1.97;;;1.77;;
12129;SDS011;6128;59.340;18.040;2022-12-10T14:49:31;2.23;;;1.80;;
12129;SDS011;6128;59.340;18.040;2022-12-10T14:52:07;2.00;;;1.77;;
12129;SDS011;6128;59.340;18.040;2022-12-10T14:54:42;3.20;;;2.30;;
12129;SDS011;6128;59.340;18.040;2022-12-10T14:57:13;3.63;;;2.27;;
12129;SDS011;6128;59.340;18.040;2022-12-10T14:59:47;2.60;;;2.40;;
12129;SDS011;6128;59.340;18.040;2022-12-10T15:02:19;3.10;;;2.60;;
12129;SDS011;6128;59.340;18.040;2022-12-10T15:04:50;2.50;;;2.30;;
12129;SDS011;6128;59.340;18.040;2022-12-10T15:07:21;2.53;;;2.27;;
12129;SDS011;6128;59.340;18.040;2022-12-10T15:09:53;3.03;;;2.40;;
12129;SDS011;6128;59.340;18.040;2022-12-10T15:12:35;2.23;;;1.80;;
12129;SDS011;6128;59.340;18.040;2022-12-10T15:15:11;2.23;;;2.00;;
12129;SDS011;6128;59.340;18.040;2022-12-10T15:17:51;2.73;;;2.53;;
12129;SDS011;6128;59.340;18.040;2022-12-10T15:20:28;1.90;;;1.80;;
12129;SDS011;6128;59.340;18.040;2022-12-10T15:23:19;3.03;;;2.00;;
12129;SDS011;6128;59.340;18.040;2022-12-10T15:25:52;2.43;;;2.13;;
12129;SDS011;6128;59.340;18.040;2022-12-10T15:28:27;2.47;;;1.80;;
12129;SDS011;6128;59.340;18.040;2022-12-10T15:31:09;2.13;;;1.90;;